sensor_id;sensor_type;location;lat;lon;timestamp;P1;durP1;ratioP1;P2;durP2;ratioP2
31818;SDS011;18384;48.860;9.188;2023-05-07T00:00:44;5.90;;;3.10;;
31818;SDS011;18384;48.860;9.188;2023-05-07T00:03:10;8.63;;;3.00;;
31818;SDS011;18384;48.860;9.188;2023-05-07T00:08:03;6.85;;;3.47;;
31818;SDS011;18384;48.860;9.188;2023-05-07T00:10:29;6.95;;;2.90;;
31818;SDS011;18384;48.860;9.188;2023-05-07T00:12:55;4.95;;;3.03;;
31818;SDS011;18384;48.860;9.188;2023-05-07T00:15:21;8.65;;;3.53;;
31818;SDS011;18384;48.860;9.188;2023-05-07T00:17:47;4.03;;;2.80;;
31818;SDS011;18384;48.860;9.188;2023-05-07T00:20:14;6.87;;;4.05;;
31818;SDS011;18384;48.860;9.188;2023-05-07T00:22:40;5.50;;;3.17;;
31818;SDS011;18384;48.860;9.188;2023-05-07T00:25:06;8.77;;;3.50;;
31818;SDS011;18384;48.860;9.188;2023-05-07T00:27:33;6.87;;;3.37;;
31818;SDS011;18384;48.860;9.188;2023-05-07T00:29:59;10.00;;;4.12;;
31818;SDS011;18384;48.860;9.188;2023-05-07T00:32:25;9.27;;;3.67;;
31818;SDS011;18384;48.860;9.188;2023-05-07T00:34:51;10.77;;;3.67;;
31818;SDS011;18384;48.860;9.188;2023-05-07T00:37:17;8.45;;;3.72;;
31818;SDS011;18384;48.860;9.188;2023-05-07T00:39:43;7.22;;;3.30;;
31818;SDS011;18384;48.860;9.188;2023-05-07T00:42:09;6.45;;;3.75;;
31818;SDS011;18384;48.860;9.188;2023-05-07T00:44:36;9.90;;;3.50;;
31818;SDS011;18384;48.860;9.188;2023-05-07T00:47:02;11.15;;;3.50;;
31818;SDS011;18384;48.860;9.188;2023-05-07T00:49:34;5.55;;;3.33;;
31818;SDS011;18384;48.860;9.188;2023-05-07T00:52:07;6.07;;;3.62;;
31818;SDS011;18384;48.860;9.188;2023-05-07T00:54:37;9.95;;;3.95;;
31818;SDS011;18384;48.860;9.188;2023-05-07T00:57:03;11.38;;;3.10;;
31818;SDS011;18384;48.860;9.188;2023-05-07T00:59:30;5.03;;;3.10;;
31818;SDS011;18384;48.860;9.188;2023-05-07T01:01:57;5.37;;;2.75;;
31818;SDS011;18384;48.860;9.188;2023-05-07T01:04:25;7.12;;;3.15;;
31818;SDS011;18384;48.860;9.188;2023-05-07T01:06:52;7.95;;;2.87;;
31818;SDS011;18384;48.860;9.188;2023-05-07T01:09:21;4.30;;;2.60;;
31818;SDS011;18384;48.860;9.188;2023-05-07T01:11:51;5.10;;;2.53;;
31818;SDS011;18384;48.860;9.188;2023-05-07T01:14:18;7.70;;;3.22;;
31818;SDS011;18384;48.860;9.188;2023-05-07T01:16:46;6.32;;;3.12;;
31818;SDS011;18384;48.860;9.188;2023-05-07T01:19:13;7.40;;;2.75;;
31818;SDS011;18384;48.860;9.188;2023-05-07T01:21:44;7.25;;;4.53;;
31818;SDS011;18384;48.860;9.188;2023-05-07T01:24:13;8.40;;;3.20;;
31818;SDS011;18384;48.860;9.188;2023-05-07T01:26:40;6.00;;;2.95;;
31818;SDS011;18384;48.860;9.188;2023-05-07T01:29:07;7.87;;;2.85;;
31818;SDS011;18384;48.860;9.188;2023-05-07T01:31:33;4.43;;;2.30;;
31818;SDS011;18384;48.860;9.188;2023-05-07T01:34:01;7.65;;;2.78;;
31818;SDS011;18384;48.860;9.188;2023-05-07T01:36:30;8.90;;;3.00;;
31818;SDS011;18384;48.860;9.188;2023-05-07T01:38:57;9.05;;;2.85;;
31818;SDS011;18384;48.860;9.188;2023-05-07T01:41:23;8.30;;;2.95;;
31818;SDS011;18384;48.860;9.188;2023-05-07T01:46:17;4.15;;;2.60;;
31818;SDS011;18384;48.860;9.188;2023-05-07T01:48:44;4.78;;;2.55;;
31818;SDS011;18384;48.860;9.188;2023-05-07T01:51:11;6.62;;;2.58;;
31818;SDS011;18384;48.860;9.188;2023-05-07T01:53:38;6.18;;;3.20;;
31818;SDS011;18384;48.860;9.188;2023-05-07T01:56:05;4.68;;;2.72;;
31818;SDS011;18384;48.860;9.188;2023-05-07T01:58:32;7.22;;;3.17;;
31818;SDS011;18384;48.860;9.188;2023-05-07T02:00:58;5.25;;;3.17;;
31818;SDS011;18384;48.860;9.188;2023-05-07T02:05:50;4.37;;;2.83;;
31818;SDS011;18384;48.860;9.188;2023-05-07T02:08:16;10.55;;;3.10;;
31818;SDS011;18384;48.860;9.188;2023-05-07T02:10:43;4.12;;;2.47;;
31818;SDS011;18384;48.860;9.188;2023-05-07T02:13:09;6.22;;;2.90;;
31818;SDS011;18384;48.860;9.188;2023-05-07T02:15:35;12.65;;;2.65;;
31818;SDS011;18384;48.860;9.188;2023-05-07T02:18:02;5.35;;;2.42;;
31818;SDS011;18384;48.860;9.188;2023-05-07T02:20:34;4.32;;;2.50;;
31818;SDS011;18384;48.860;9.188;2023-05-07T02:23:00;3.97;;;2.60;;
31818;SDS011;18384;48.860;9.188;2023-05-07T02:25:26;9.57;;;2.55;;
31818;SDS011;18384;48.860;9.188;2023-05-07T02:27:52;6.07;;;2.90;;
31818;SDS011;18384;48.860;9.188;2023-05-07T02:30:18;9.73;;;3.10;;
31818;SDS011;18384;48.860;9.188;2023-05-07T02:32:46;6.62;;;2.40;;
31818;SDS011;18384;48.860;9.188;2023-05-07T02:35:12;5.37;;;2.75;;
31818;SDS011;18384;48.860;9.188;2023-05-07T02:37:38;6.57;;;2.80;;
31818;SDS011;18384;48.860;9.188;2023-05-07T02:40:05;3.90;;;2.40;;
31818;SDS011;18384;48.860;9.188;2023-05-07T02:42:31;5.75;;;2.80;;
31818;SDS011;18384;48.860;9.188;2023-05-07T02:44:58;11.18;;;3.08;;
31818;SDS011;18384;48.860;9.188;2023-05-07T02:47:24;5.50;;;2.70;;
31818;SDS011;18384;48.860;9.188;2023-05-07T02:49:52;5.82;;;2.67;;
31818;SDS011;18384;48.860;9.188;2023-05-07T02:52:21;6.68;;;2.90;;
31818;SDS011;18384;48.860;9.188;2023-05-07T02:54:48;5.10;;;2.90;;
31818;SDS011;18384;48.860;9.188;2023-05-07T02:57:14;6.45;;;2.37;;
31818;SDS011;18384;48.860;9.188;2023-05-07T02:59:41;14.57;;;3.55;;
31818;SDS011;18384;48.860;9.188;2023-05-07T03:02:08;5.32;;;2.75;;
31818;SDS011;18384;48.860;9.188;2023-05-07T03:04:34;7.05;;;3.10;;
31818;SDS011;18384;48.860;9.188;2023-05-07T03:09:26;7.47;;;2.53;;
31818;SDS011;18384;48.860;9.188;2023-05-07T03:11:52;4.32;;;2.80;;
31818;SDS011;18384;48.860;9.188;2023-05-07T03:14:18;6.62;;;3.28;;
31818;SDS011;18384;48.860;9.188;2023-05-07T03:16:45;7.20;;;3.30;;
31818;SDS011;18384;48.860;9.188;2023-05-07T03:19:11;9.20;;;3.15;;
31818;SDS011;18384;48.860;9.188;2023-05-07T03:21:37;8.40;;;3.10;;
31818;SDS011;18384;48.860;9.188;2023-05-07T03:24:04;5.53;;;2.80;;
31818;SDS011;18384;48.860;9.188;2023-05-07T03:26:30;7.00;;;2.72;;
31818;SDS011;18384;48.860;9.188;2023-05-07T03:28:56;6.30;;;3.00;;
31818;SDS011;18384;48.860;9.188;2023-05-07T03:31:23;8.32;;;3.28;;
31818;SDS011;18384;48.860;9.188;2023-05-07T03:33:53;4.35;;;2.80;;
31818;SDS011;18384;48.860;9.188;2023-05-07T03:36:20;4.47;;;2.62;;
31818;SDS011;18384;48.860;9.188;2023-05-07T03:38:47;5.60;;;3.35;;
31818;SDS011;18384;48.860;9.188;2023-05-07T03:41:14;7.07;;;2.75;;
31818;SDS011;18384;48.860;9.188;2023-05-07T03:46:06;4.53;;;2.60;;
31818;SDS011;18384;48.860;9.188;2023-05-07T03:48:34;4.80;;;2.90;;
31818;SDS011;18384;48.860;9.188;2023-05-07T03:51:00;5.30;;;2.78;;
31818;SDS011;18384;48.860;9.188;2023-05-07T03:53:26;5.65;;;2.92;;
31818;SDS011;18384;48.860;9.188;2023-05-07T03:55:52;6.15;;;3.10;;
31818;SDS011;18384;48.860;9.188;2023-05-07T03:58:18;5.47;;;3.20;;
31818;SDS011;18384;48.860;9.188;2023-05-07T04:00:44;5.80;;;2.65;;
31818;SDS011;18384;48.860;9.188;2023-05-07T04:03:10;5.20;;;3.25;;
31818;SDS011;18384;48.860;9.188;2023-05-07T04:05:36;5.30;;;3.40;;
31818;SDS011;18384;48.860;9.188;2023-05-07T04:08:03;6.90;;;3.60;;
31818;SDS011;18384;48.860;9.188;2023-05-07T04:10:29;6.55;;;3.47;;
31818;SDS011;18384;48.860;9.188;2023-05-07T04:12:55;5.53;;;2.72;;
31818;SDS011;18384;48.860;9.188;2023-05-07T04:15:22;5.25;;;3.08;;
31818;SDS011;18384;48.860;9.188;2023-05-07T04:17:49;4.72;;;3.00;;
31818;SDS011;18384;48.860;9.188;2023-05-07T04:20:15;6.37;;;3.12;;
31818;SDS011;18384;48.860;9.188;2023-05-07T04:22:42;5.50;;;3.30;;
31818;SDS011;18384;48.860;9.188;2023-05-07T04:25:08;4.97;;;2.55;;
31818;SDS011;18384;48.860;9.188;2023-05-07T04:30:01;4.15;;;2.72;;
31818;SDS011;18384;48.860;9.188;2023-05-07T04:32:28;7.72;;;3.17;;
31818;SDS011;18384;48.860;9.188;2023-05-07T04:34:55;5.12;;;2.83;;
31818;SDS011;18384;48.860;9.188;2023-05-07T04:37:22;6.62;;;3.00;;
31818;SDS011;18384;48.860;9.188;2023-05-07T04:42:15;6.10;;;2.80;;
31818;SDS011;18384;48.860;9.188;2023-05-07T04:44:42;9.77;;;2.65;;
31818;SDS011;18384;48.860;9.188;2023-05-07T04:47:10;3.92;;;2.75;;
31818;SDS011;18384;48.860;9.188;2023-05-07T04:49:37;4.50;;;2.83;;
31818;SDS011;18384;48.860;9.188;2023-05-07T04:52:04;7.35;;;3.15;;
31818;SDS011;18384;48.860;9.188;2023-05-07T04:56:56;9.73;;;2.62;;
31818;SDS011;18384;48.860;9.188;2023-05-07T04:59:22;5.80;;;2.80;;
31818;SDS011;18384;48.860;9.188;2023-05-07T05:01:48;4.07;;;2.28;;
31818;SDS011;18384;48.860;9.188;2023-05-07T05:04:14;4.03;;;2.20;;
31818;SDS011;18384;48.860;9.188;2023-05-07T05:06:41;7.15;;;2.53;;
31818;SDS011;18384;48.860;9.188;2023-05-07T05:09:07;6.37;;;2.47;;
31818;SDS011;18384;48.860;9.188;2023-05-07T05:11:33;5.28;;;2.42;;
31818;SDS011;18384;48.860;9.188;2023-05-07T05:13:59;6.30;;;2.70;;
31818;SDS011;18384;48.860;9.188;2023-05-07T05:16:25;4.40;;;2.75;;
31818;SDS011;18384;48.860;9.188;2023-05-07T05:18:51;4.05;;;2.72;;
31818;SDS011;18384;48.860;9.188;2023-05-07T05:21:19;7.25;;;2.85;;
31818;SDS011;18384;48.860;9.188;2023-05-07T05:23:46;5.12;;;2.97;;
31818;SDS011;18384;48.860;9.188;2023-05-07T05:26:12;6.82;;;3.00;;
31818;SDS011;18384;48.860;9.188;2023-05-07T05:28:38;7.47;;;3.50;;
31818;SDS011;18384;48.860;9.188;2023-05-07T05:31:04;6.12;;;3.10;;
31818;SDS011;18384;48.860;9.188;2023-05-07T05:33:31;13.82;;;3.70;;
31818;SDS011;18384;48.860;9.188;2023-05-07T05:35:57;8.18;;;3.45;;
31818;SDS011;18384;48.860;9.188;2023-05-07T05:38:23;7.07;;;3.53;;
31818;SDS011;18384;48.860;9.188;2023-05-07T05:40:49;6.78;;;3.33;;
31818;SDS011;18384;48.860;9.188;2023-05-07T05:43:15;5.28;;;2.67;;
31818;SDS011;18384;48.860;9.188;2023-05-07T05:45:41;4.10;;;2.80;;
31818;SDS011;18384;48.860;9.188;2023-05-07T05:48:07;9.70;;;2.70;;
31818;SDS011;18384;48.860;9.188;2023-05-07T05:50:34;4.25;;;2.50;;
31818;SDS011;18384;48.860;9.188;2023-05-07T05:53:03;4.82;;;2.17;;
31818;SDS011;18384;48.860;9.188;2023-05-07T05:55:29;9.48;;;2.05;;
31818;SDS011;18384;48.860;9.188;2023-05-07T05:57:57;6.85;;;2.30;;
31818;SDS011;18384;48.860;9.188;2023-05-07T06:00:25;4.82;;;2.30;;
31818;SDS011;18384;48.860;9.188;2023-05-07T06:02:51;4.65;;;2.08;;
31818;SDS011;18384;48.860;9.188;2023-05-07T06:05:17;5.85;;;2.10;;
31818;SDS011;18384;48.860;9.188;2023-05-07T06:10:10;5.35;;;2.12;;
31818;SDS011;18384;48.860;9.188;2023-05-07T06:12:36;3.90;;;2.00;;
31818;SDS011;18384;48.860;9.188;2023-05-07T06:15:02;5.05;;;1.87;;
31818;SDS011;18384;48.860;9.188;2023-05-07T06:17:29;5.80;;;2.35;;
31818;SDS011;18384;48.860;9.188;2023-05-07T06:19:55;3.30;;;2.10;;
31818;SDS011;18384;48.860;9.188;2023-05-07T06:22:21;6.80;;;2.10;;
31818;SDS011;18384;48.860;9.188;2023-05-07T06:24:47;6.95;;;2.05;;
31818;SDS011;18384;48.860;9.188;2023-05-07T06:27:13;4.55;;;2.15;;
31818;SDS011;18384;48.860;9.188;2023-05-07T06:29:39;4.18;;;2.30;;
31818;SDS011;18384;48.860;9.188;2023-05-07T06:32:09;3.72;;;2.45;;
31818;SDS011;18384;48.860;9.188;2023-05-07T06:34:36;5.35;;;2.03;;
31818;SDS011;18384;48.860;9.188;2023-05-07T06:37:04;3.95;;;1.90;;
31818;SDS011;18384;48.860;9.188;2023-05-07T06:39:30;4.93;;;1.80;;
31818;SDS011;18384;48.860;9.188;2023-05-07T06:41:57;5.18;;;1.83;;
31818;SDS011;18384;48.860;9.188;2023-05-07T06:44:24;4.22;;;2.10;;
31818;SDS011;18384;48.860;9.188;2023-05-07T06:49:16;16.08;;;2.10;;
31818;SDS011;18384;48.860;9.188;2023-05-07T06:51:42;4.60;;;2.00;;
31818;SDS011;18384;48.860;9.188;2023-05-07T06:54:08;2.83;;;1.80;;
31818;SDS011;18384;48.860;9.188;2023-05-07T06:56:34;7.32;;;2.10;;
31818;SDS011;18384;48.860;9.188;2023-05-07T06:59:01;4.28;;;1.95;;
31818;SDS011;18384;48.860;9.188;2023-05-07T07:01:28;4.78;;;1.87;;
31818;SDS011;18384;48.860;9.188;2023-05-07T07:03:54;8.05;;;1.90;;
31818;SDS011;18384;48.860;9.188;2023-05-07T07:08:46;5.45;;;2.05;;
31818;SDS011;18384;48.860;9.188;2023-05-07T07:11:12;4.20;;;1.80;;
31818;SDS011;18384;48.860;9.188;2023-05-07T07:13:38;4.20;;;2.20;;
31818;SDS011;18384;48.860;9.188;2023-05-07T07:16:05;4.10;;;2.15;;
31818;SDS011;18384;48.860;9.188;2023-05-07T07:20:57;6.32;;;2.05;;
31818;SDS011;18384;48.860;9.188;2023-05-07T07:23:24;6.93;;;2.20;;
31818;SDS011;18384;48.860;9.188;2023-05-07T07:25:50;9.60;;;2.37;;
31818;SDS011;18384;48.860;9.188;2023-05-07T07:28:16;4.75;;;2.17;;
31818;SDS011;18384;48.860;9.188;2023-05-07T07:30:43;5.12;;;1.80;;
31818;SDS011;18384;48.860;9.188;2023-05-07T07:33:09;5.55;;;2.35;;
31818;SDS011;18384;48.860;9.188;2023-05-07T07:35:35;4.80;;;2.00;;
31818;SDS011;18384;48.860;9.188;2023-05-07T07:38:01;6.45;;;2.00;;
31818;SDS011;18384;48.860;9.188;2023-05-07T07:40:27;4.93;;;2.03;;
31818;SDS011;18384;48.860;9.188;2023-05-07T07:42:53;4.85;;;2.20;;
31818;SDS011;18384;48.860;9.188;2023-05-07T07:47:46;4.03;;;2.17;;
31818;SDS011;18384;48.860;9.188;2023-05-07T07:52:38;5.15;;;1.95;;
31818;SDS011;18384;48.860;9.188;2023-05-07T07:55:04;5.43;;;2.28;;
31818;SDS011;18384;48.860;9.188;2023-05-07T07:57:32;3.87;;;2.17;;
31818;SDS011;18384;48.860;9.188;2023-05-07T07:59:58;3.25;;;2.08;;
31818;SDS011;18384;48.860;9.188;2023-05-07T08:04:50;4.00;;;1.87;;
31818;SDS011;18384;48.860;9.188;2023-05-07T08:07:16;6.47;;;2.40;;
31818;SDS011;18384;48.860;9.188;2023-05-07T08:09:45;5.25;;;2.50;;
31818;SDS011;18384;48.860;9.188;2023-05-07T08:12:12;4.57;;;2.37;;
31818;SDS011;18384;48.860;9.188;2023-05-07T08:14:38;4.20;;;2.20;;
31818;SDS011;18384;48.860;9.188;2023-05-07T08:19:30;4.87;;;2.00;;
31818;SDS011;18384;48.860;9.188;2023-05-07T08:21:56;5.82;;;1.95;;
31818;SDS011;18384;48.860;9.188;2023-05-07T08:26:48;7.10;;;2.25;;
31818;SDS011;18384;48.860;9.188;2023-05-07T08:29:15;7.72;;;2.58;;
31818;SDS011;18384;48.860;9.188;2023-05-07T08:34:07;6.70;;;2.08;;
31818;SDS011;18384;48.860;9.188;2023-05-07T08:38:59;3.90;;;2.28;;
31818;SDS011;18384;48.860;9.188;2023-05-07T08:41:25;4.85;;;2.20;;
31818;SDS011;18384;48.860;9.188;2023-05-07T08:51:17;4.32;;;2.37;;
31818;SDS011;18384;48.860;9.188;2023-05-07T08:53:46;5.00;;;2.28;;
31818;SDS011;18384;48.860;9.188;2023-05-07T08:56:13;3.95;;;2.08;;
31818;SDS011;18384;48.860;9.188;2023-05-07T08:58:45;4.07;;;2.37;;
31818;SDS011;18384;48.860;9.188;2023-05-07T09:03:39;4.43;;;2.80;;
31818;SDS011;18384;48.860;9.188;2023-05-07T09:06:05;6.20;;;2.60;;
31818;SDS011;18384;48.860;9.188;2023-05-07T09:08:32;4.15;;;2.33;;
31818;SDS011;18384;48.860;9.188;2023-05-07T09:10:59;3.55;;;2.15;;
31818;SDS011;18384;48.860;9.188;2023-05-07T09:13:26;6.30;;;2.50;;
31818;SDS011;18384;48.860;9.188;2023-05-07T09:15:53;5.55;;;2.30;;
31818;SDS011;18384;48.860;9.188;2023-05-07T09:18:20;5.82;;;2.60;;
31818;SDS011;18384;48.860;9.188;2023-05-07T09:23:12;4.30;;;2.03;;
31818;SDS011;18384;48.860;9.188;2023-05-07T09:25:39;5.03;;;2.58;;
31818;SDS011;18384;48.860;9.188;2023-05-07T09:28:05;6.40;;;1.95;;
31818;SDS011;18384;48.860;9.188;2023-05-07T09:30:32;5.25;;;1.92;;
31818;SDS011;18384;48.860;9.188;2023-05-07T09:33:00;3.80;;;2.03;;
31818;SDS011;18384;48.860;9.188;2023-05-07T09:35:27;4.45;;;2.30;;
31818;SDS011;18384;48.860;9.188;2023-05-07T09:37:55;4.57;;;2.25;;
31818;SDS011;18384;48.860;9.188;2023-05-07T09:40:24;8.25;;;2.00;;
31818;SDS011;18384;48.860;9.188;2023-05-07T09:42:56;5.68;;;2.08;;
31818;SDS011;18384;48.860;9.188;2023-05-07T09:45:33;11.07;;;1.80;;
31818;SDS011;18384;48.860;9.188;2023-05-07T09:50:26;6.60;;;2.10;;
31818;SDS011;18384;48.860;9.188;2023-05-07T09:52:55;7.18;;;2.00;;
31818;SDS011;18384;48.860;9.188;2023-05-07T09:55:22;4.57;;;2.03;;
31818;SDS011;18384;48.860;9.188;2023-05-07T09:57:52;4.93;;;2.03;;
31818;SDS011;18384;48.860;9.188;2023-05-07T10:00:19;5.20;;;2.00;;
31818;SDS011;18384;48.860;9.188;2023-05-07T10:02:48;4.95;;;2.00;;
31818;SDS011;18384;48.860;9.188;2023-05-07T10:05:17;3.67;;;2.12;;
31818;SDS011;18384;48.860;9.188;2023-05-07T10:07:45;4.55;;;2.08;;
31818;SDS011;18384;48.860;9.188;2023-05-07T10:10:12;3.80;;;2.00;;
31818;SDS011;18384;48.860;9.188;2023-05-07T10:12:40;4.62;;;1.95;;
31818;SDS011;18384;48.860;9.188;2023-05-07T10:15:07;5.37;;;1.60;;
31818;SDS011;18384;48.860;9.188;2023-05-07T10:17:38;4.55;;;1.95;;
31818;SDS011;18384;48.860;9.188;2023-05-07T10:20:05;2.95;;;1.70;;
31818;SDS011;18384;48.860;9.188;2023-05-07T10:22:44;5.93;;;2.10;;
31818;SDS011;18384;48.860;9.188;2023-05-07T10:25:28;2.80;;;1.95;;
31818;SDS011;18384;48.860;9.188;2023-05-07T10:27:57;8.05;;;2.03;;
31818;SDS011;18384;48.860;9.188;2023-05-07T10:34:21;5.72;;;1.62;;
31818;SDS011;18384;48.860;9.188;2023-05-07T10:36:53;2.92;;;1.40;;
31818;SDS011;18384;48.860;9.188;2023-05-07T10:39:21;2.87;;;1.58;;
31818;SDS011;18384;48.860;9.188;2023-05-07T10:41:48;3.40;;;1.80;;
31818;SDS011;18384;48.860;9.188;2023-05-07T10:44:27;7.87;;;1.92;;
31818;SDS011;18384;48.860;9.188;2023-05-07T10:47:07;4.10;;;2.00;;
31818;SDS011;18384;48.860;9.188;2023-05-07T10:49:35;4.78;;;1.85;;
31818;SDS011;18384;48.860;9.188;2023-05-07T10:53:21;3.70;;;1.83;;
31818;SDS011;18384;48.860;9.188;2023-05-07T10:55:50;2.22;;;1.40;;
31818;SDS011;18384;48.860;9.188;2023-05-07T10:58:22;5.25;;;1.80;;
31818;SDS011;18384;48.860;9.188;2023-05-07T11:00:58;2.23;;;1.37;;
31818;SDS011;18384;48.860;9.188;2023-05-07T11:03:28;3.87;;;1.40;;
31818;SDS011;18384;48.860;9.188;2023-05-07T11:06:13;3.58;;;1.50;;
31818;SDS011;18384;48.860;9.188;2023-05-07T11:08:54;5.15;;;2.10;;
31818;SDS011;18384;48.860;9.188;2023-05-07T11:17:09;3.95;;;1.30;;
31818;SDS011;18384;48.860;9.188;2023-05-07T11:19:51;3.55;;;1.62;;
31818;SDS011;18384;48.860;9.188;2023-05-07T11:26:50;3.67;;;1.77;;
31818;SDS011;18384;48.860;9.188;2023-05-07T11:29:17;5.30;;;1.60;;
31818;SDS011;18384;48.860;9.188;2023-05-07T11:31:54;3.47;;;1.85;;
31818;SDS011;18384;48.860;9.188;2023-05-07T11:34:24;8.27;;;1.52;;
31818;SDS011;18384;48.860;9.188;2023-05-07T11:36:51;3.17;;;1.50;;
31818;SDS011;18384;48.860;9.188;2023-05-07T11:39:27;5.72;;;1.65;;
31818;SDS011;18384;48.860;9.188;2023-05-07T11:41:56;5.15;;;1.60;;
31818;SDS011;18384;48.860;9.188;2023-05-07T11:44:23;5.85;;;1.62;;
31818;SDS011;18384;48.860;9.188;2023-05-07T11:49:15;3.05;;;1.48;;
31818;SDS011;18384;48.860;9.188;2023-05-07T11:51:41;7.57;;;1.50;;
31818;SDS011;18384;48.860;9.188;2023-05-07T11:54:08;4.60;;;1.48;;
31818;SDS011;18384;48.860;9.188;2023-05-07T11:56:36;11.88;;;1.65;;
31818;SDS011;18384;48.860;9.188;2023-05-07T11:59:04;3.22;;;1.55;;
31818;SDS011;18384;48.860;9.188;2023-05-07T12:01:30;7.22;;;1.58;;
31818;SDS011;18384;48.860;9.188;2023-05-07T12:06:22;5.18;;;1.23;;
31818;SDS011;18384;48.860;9.188;2023-05-07T12:11:24;2.75;;;1.10;;
31818;SDS011;18384;48.860;9.188;2023-05-07T12:13:51;5.47;;;1.37;;
31818;SDS011;18384;48.860;9.188;2023-05-07T12:16:18;9.50;;;1.40;;
31818;SDS011;18384;48.860;9.188;2023-05-07T12:18:45;2.87;;;1.30;;
31818;SDS011;18384;48.860;9.188;2023-05-07T12:21:11;4.25;;;1.25;;
31818;SDS011;18384;48.860;9.188;2023-05-07T12:23:38;3.60;;;1.40;;
31818;SDS011;18384;48.860;9.188;2023-05-07T12:26:04;5.32;;;1.17;;
31818;SDS011;18384;48.860;9.188;2023-05-07T12:31:02;2.80;;;1.20;;
31818;SDS011;18384;48.860;9.188;2023-05-07T12:33:28;4.78;;;1.20;;
31818;SDS011;18384;48.860;9.188;2023-05-07T12:35:56;3.30;;;0.90;;
31818;SDS011;18384;48.860;9.188;2023-05-07T12:38:23;4.15;;;1.12;;
31818;SDS011;18384;48.860;9.188;2023-05-07T12:40:50;2.10;;;1.10;;
31818;SDS011;18384;48.860;9.188;2023-05-07T12:43:19;3.70;;;1.00;;
31818;SDS011;18384;48.860;9.188;2023-05-07T12:45:50;2.95;;;1.20;;
31818;SDS011;18384;48.860;9.188;2023-05-07T12:48:18;4.45;;;1.20;;
31818;SDS011;18384;48.860;9.188;2023-05-07T12:50:45;3.95;;;1.70;;
31818;SDS011;18384;48.860;9.188;2023-05-07T12:53:22;4.93;;;1.80;;
31818;SDS011;18384;48.860;9.188;2023-05-07T12:55:51;6.22;;;2.00;;
31818;SDS011;18384;48.860;9.188;2023-05-07T12:58:23;3.72;;;1.45;;
31818;SDS011;18384;48.860;9.188;2023-05-07T13:01:10;5.60;;;2.00;;
31818;SDS011;18384;48.860;9.188;2023-05-07T13:03:40;5.40;;;1.73;;
31818;SDS011;18384;48.860;9.188;2023-05-07T13:08:38;4.30;;;1.80;;
31818;SDS011;18384;48.860;9.188;2023-05-07T13:11:08;5.57;;;2.35;;
31818;SDS011;18384;48.860;9.188;2023-05-07T13:13:36;4.43;;;2.08;;
31818;SDS011;18384;48.860;9.188;2023-05-07T13:16:04;6.37;;;1.80;;
31818;SDS011;18384;48.860;9.188;2023-05-07T13:18:32;6.28;;;2.03;;
31818;SDS011;18384;48.860;9.188;2023-05-07T13:20:59;6.57;;;2.80;;
31818;SDS011;18384;48.860;9.188;2023-05-07T13:23:26;10.90;;;3.37;;
31818;SDS011;18384;48.860;9.188;2023-05-07T13:25:53;6.22;;;2.60;;
31818;SDS011;18384;48.860;9.188;2023-05-07T13:28:20;4.93;;;1.62;;
31818;SDS011;18384;48.860;9.188;2023-05-07T13:30:48;4.62;;;1.42;;
31818;SDS011;18384;48.860;9.188;2023-05-07T13:33:14;2.67;;;1.08;;
31818;SDS011;18384;48.860;9.188;2023-05-07T13:35:41;3.08;;;1.10;;
31818;SDS011;18384;48.860;9.188;2023-05-07T13:40:33;1.40;;;0.70;;
31818;SDS011;18384;48.860;9.188;2023-05-07T13:45:28;4.65;;;1.50;;
31818;SDS011;18384;48.860;9.188;2023-05-07T13:47:55;3.78;;;1.33;;
31818;SDS011;18384;48.860;9.188;2023-05-07T13:50:22;6.55;;;1.30;;
31818;SDS011;18384;48.860;9.188;2023-05-07T13:52:48;6.25;;;1.50;;
31818;SDS011;18384;48.860;9.188;2023-05-07T13:55:17;5.78;;;1.75;;
31818;SDS011;18384;48.860;9.188;2023-05-07T13:57:45;4.97;;;1.40;;
31818;SDS011;18384;48.860;9.188;2023-05-07T14:00:12;3.92;;;1.20;;
31818;SDS011;18384;48.860;9.188;2023-05-07T14:02:39;6.20;;;1.15;;
31818;SDS011;18384;48.860;9.188;2023-05-07T14:05:06;3.55;;;0.90;;
31818;SDS011;18384;48.860;9.188;2023-05-07T14:07:34;2.83;;;0.88;;
31818;SDS011;18384;48.860;9.188;2023-05-07T14:10:00;3.50;;;0.70;;
31818;SDS011;18384;48.860;9.188;2023-05-07T14:12:27;2.47;;;0.90;;
31818;SDS011;18384;48.860;9.188;2023-05-07T14:14:53;16.60;;;1.30;;
31818;SDS011;18384;48.860;9.188;2023-05-07T14:17:19;4.87;;;1.20;;
31818;SDS011;18384;48.860;9.188;2023-05-07T14:19:45;5.37;;;0.95;;
31818;SDS011;18384;48.860;9.188;2023-05-07T14:22:13;2.53;;;0.98;;
31818;SDS011;18384;48.860;9.188;2023-05-07T14:24:40;2.30;;;1.10;;
31818;SDS011;18384;48.860;9.188;2023-05-07T14:27:06;2.33;;;1.00;;
31818;SDS011;18384;48.860;9.188;2023-05-07T14:29:32;5.53;;;1.40;;
31818;SDS011;18384;48.860;9.188;2023-05-07T14:32:00;3.17;;;1.10;;
31818;SDS011;18384;48.860;9.188;2023-05-07T14:34:28;2.20;;;1.08;;
31818;SDS011;18384;48.860;9.188;2023-05-07T14:39:20;3.37;;;1.10;;
31818;SDS011;18384;48.860;9.188;2023-05-07T14:44:12;3.65;;;1.20;;
31818;SDS011;18384;48.860;9.188;2023-05-07T14:46:39;3.65;;;2.15;;
31818;SDS011;18384;48.860;9.188;2023-05-07T14:51:32;10.10;;;1.70;;
31818;SDS011;18384;48.860;9.188;2023-05-07T14:53:58;3.85;;;1.40;;
31818;SDS011;18384;48.860;9.188;2023-05-07T14:56:25;5.18;;;1.73;;
31818;SDS011;18384;48.860;9.188;2023-05-07T15:01:17;4.90;;;1.62;;
31818;SDS011;18384;48.860;9.188;2023-05-07T15:03:43;3.67;;;1.58;;
31818;SDS011;18384;48.860;9.188;2023-05-07T15:06:09;4.95;;;1.55;;
31818;SDS011;18384;48.860;9.188;2023-05-07T15:08:35;4.32;;;1.73;;
31818;SDS011;18384;48.860;9.188;2023-05-07T15:11:01;3.87;;;2.25;;
31818;SDS011;18384;48.860;9.188;2023-05-07T15:13:28;3.00;;;1.60;;
31818;SDS011;18384;48.860;9.188;2023-05-07T15:15:54;3.60;;;1.70;;
31818;SDS011;18384;48.860;9.188;2023-05-07T15:20:46;12.07;;;4.62;;
31818;SDS011;18384;48.860;9.188;2023-05-07T15:23:12;10.20;;;4.25;;
31818;SDS011;18384;48.860;9.188;2023-05-07T15:25:39;5.22;;;2.33;;
31818;SDS011;18384;48.860;9.188;2023-05-07T15:28:05;4.95;;;2.50;;
31818;SDS011;18384;48.860;9.188;2023-05-07T15:30:31;4.50;;;2.42;;
31818;SDS011;18384;48.860;9.188;2023-05-07T15:35:23;6.35;;;1.92;;
31818;SDS011;18384;48.860;9.188;2023-05-07T15:37:50;6.65;;;1.95;;
31818;SDS011;18384;48.860;9.188;2023-05-07T15:40:17;3.87;;;1.95;;
31818;SDS011;18384;48.860;9.188;2023-05-07T15:42:44;5.43;;;2.00;;
31818;SDS011;18384;48.860;9.188;2023-05-07T15:45:11;6.80;;;2.17;;
31818;SDS011;18384;48.860;9.188;2023-05-07T15:47:37;3.90;;;1.80;;
31818;SDS011;18384;48.860;9.188;2023-05-07T15:50:03;8.73;;;1.87;;
31818;SDS011;18384;48.860;9.188;2023-05-07T15:52:30;6.25;;;2.03;;
31818;SDS011;18384;48.860;9.188;2023-05-07T15:54:58;7.37;;;1.70;;
31818;SDS011;18384;48.860;9.188;2023-05-07T15:57:24;4.97;;;2.03;;
31818;SDS011;18384;48.860;9.188;2023-05-07T15:59:50;8.07;;;2.08;;
31818;SDS011;18384;48.860;9.188;2023-05-07T16:04:43;5.25;;;2.37;;
31818;SDS011;18384;48.860;9.188;2023-05-07T16:07:09;4.20;;;1.98;;
31818;SDS011;18384;48.860;9.188;2023-05-07T16:09:35;4.72;;;2.00;;
31818;SDS011;18384;48.860;9.188;2023-05-07T16:12:01;5.40;;;2.47;;
31818;SDS011;18384;48.860;9.188;2023-05-07T16:14:28;4.95;;;2.30;;
31818;SDS011;18384;48.860;9.188;2023-05-07T16:16:54;5.68;;;3.00;;
31818;SDS011;18384;48.860;9.188;2023-05-07T16:19:20;4.28;;;2.65;;
31818;SDS011;18384;48.860;9.188;2023-05-07T16:21:48;7.12;;;3.20;;
31818;SDS011;18384;48.860;9.188;2023-05-07T16:24:14;4.87;;;2.25;;
31818;SDS011;18384;48.860;9.188;2023-05-07T16:26:40;7.47;;;2.53;;
31818;SDS011;18384;48.860;9.188;2023-05-07T16:29:06;6.22;;;2.83;;
31818;SDS011;18384;48.860;9.188;2023-05-07T16:33:59;6.68;;;2.30;;
31818;SDS011;18384;48.860;9.188;2023-05-07T16:36:28;4.25;;;2.37;;
31818;SDS011;18384;48.860;9.188;2023-05-07T16:38:54;6.20;;;2.40;;
31818;SDS011;18384;48.860;9.188;2023-05-07T16:41:21;7.80;;;2.85;;